createdAt,value
2019-03-01T00:00:01.570Z,0
2019-03-01T00:05:03.348Z,11.33
2019-03-01T00:10:02.867Z,11.15
2019-03-01T00:15:03.215Z,9.68
2019-03-01T00:20:02.623Z,8.45
2019-03-01T00:25:02.990Z,10.13
2019-03-01T00:30:02.316Z,10.08
2019-03-01T00:35:01.922Z,0
2019-03-01T00:40:02.352Z,9.55
2019-03-01T00:45:02.728Z,9.80
2019-03-01T00:50:03.140Z,10.23
2019-03-01T00:55:02.594Z,11.45
2019-03-01T01:00:02.988Z,10.85
2019-03-01T01:05:02.931Z,9.80
2019-03-01T01:10:02.366Z,10.38
2019-03-01T01:15:02.805Z,12.58
2019-03-01T01:20:03.268Z,10.32
2019-03-01T01:25:02.661Z,11.88
2019-03-01T01:30:02.997Z,12.60
2019-03-01T01:35:02.576Z,11.75
2019-03-01T01:40:03.114Z,10.63
2019-03-01T01:45:01.675Z,0
2019-03-01T01:50:03.038Z,10.90
2019-03-01T01:55:02.440Z,11.30
2019-03-01T02:00:02.782Z,10.88
2019-03-01T02:05:03.232Z,14.80
2019-03-01T02:10:02.641Z,12.60
2019-03-01T02:15:03.094Z,9.23
2019-03-01T02:20:02.500Z,8.95
2019-03-01T02:25:02.854Z,8.93
2019-03-01T02:30:03.231Z,9.50
2019-03-01T02:35:02.611Z,9.48
2019-03-01T02:40:03.056Z,10.30
2019-03-01T02:45:02.483Z,9.28
2019-03-01T02:50:02.821Z,12.15
2019-03-01T02:55:03.264Z,11.63
2019-03-01T03:00:02.676Z,9.30
2019-03-01T03:05:03.022Z,9.93
2019-03-01T03:10:02.475Z,9.60
2019-03-01T03:15:02.881Z,9.18
2019-03-01T03:20:03.323Z,9.60
2019-03-01T03:25:02.734Z,8.93
2019-03-01T03:30:03.094Z,8.30
2019-03-01T03:35:02.546Z,10.48
2019-03-01T03:40:02.947Z,11.48
2019-03-01T03:45:03.315Z,10.78
2019-03-01T03:50:02.704Z,9.63
2019-03-01T03:55:03.051Z,10.20
2019-03-01T04:00:02.605Z,10.35
2019-03-01T04:05:03.057Z,11.20
2019-03-01T04:10:02.544Z,11.45
2019-03-01T04:15:02.915Z,11.65
2019-03-01T04:20:03.270Z,11.08
2019-03-01T04:25:02.652Z,15.32
2019-03-01T04:30:03.081Z,19.40
2019-03-01T04:35:02.496Z,18.05
2019-03-01T04:40:02.943Z,23.60
2019-03-01T04:45:03.287Z,29.23
2019-03-01T04:50:02.692Z,26.55
2019-03-01T04:55:03.057Z,23.95
2019-03-01T05:00:02.414Z,26.30
2019-03-01T05:05:02.846Z,28.23
2019-03-01T05:10:03.252Z,25.70
2019-03-01T05:15:02.696Z,28.23
2019-03-01T05:20:03.072Z,23.35
2019-03-01T05:25:02.466Z,25.55
2019-03-01T05:30:03.011Z,32.70
2019-03-01T05:35:02.393Z,35.95
2019-03-01T05:40:02.874Z,34.90
2019-03-01T05:45:03.316Z,34.00
2019-03-01T05:50:02.697Z,37.42
2019-03-01T05:55:03.180Z,35.35
2019-03-01T06:00:02.558Z,35.28
2019-03-01T06:05:02.900Z,33.38
2019-03-01T06:10:03.355Z,40.60
2019-03-01T06:15:02.743Z,38.30
2019-03-01T06:20:03.314Z,36.03
2019-03-01T06:25:02.748Z,36.35
2019-03-01T06:30:03.176Z,32.33
2019-03-01T06:35:02.580Z,36.48
2019-03-01T06:40:03.116Z,35.98
2019-03-01T06:45:02.481Z,35.52
2019-03-01T06:50:02.904Z,37.45
2019-03-01T06:55:02.530Z,0
2019-03-01T07:00:03.168Z,35.70
2019-03-01T07:05:02.511Z,28.40
2019-03-01T07:10:02.927Z,31.77
2019-03-01T07:15:03.264Z,32.15
2019-03-01T07:20:02.707Z,25.55
2019-03-01T07:25:03.136Z,28.02
2019-03-01T07:30:02.544Z,30.85
2019-03-01T07:35:02.898Z,29.50
2019-03-01T07:40:03.341Z,25.88
2019-03-01T07:45:02.747Z,29.52
2019-03-01T07:50:03.105Z,31.02
2019-03-01T07:55:02.505Z,28.25
2019-03-01T08:00:02.859Z,26.50
2019-03-01T08:05:04.024Z,23.10
2019-03-01T08:10:02.503Z,26.65
2019-03-01T08:15:04.056Z,27.13
2019-03-01T08:20:02.478Z,23.75
2019-03-01T08:25:02.818Z,22.55
2019-03-01T08:30:03.162Z,26.60
2019-03-01T08:35:02.572Z,25.43
2019-03-01T08:40:03.022Z,27.65
2019-03-01T08:45:02.917Z,27.62
2019-03-01T08:50:02.401Z,25.72
2019-03-01T08:55:03.507Z,29.12
2019-03-01T09:00:02.957Z,30.30
2019-03-01T09:05:05.135Z,23.20
2019-03-01T09:10:02.844Z,22.35
2019-03-01T09:15:04.528Z,26.30
2019-03-01T09:20:02.577Z,22.37
2019-03-01T09:25:06.349Z,22.87
2019-03-01T09:30:03.920Z,24.75
2019-03-01T09:35:04.366Z,26.25
2019-03-01T09:40:05.563Z,23.40
2019-03-01T09:45:02.347Z,28.07
2019-03-01T09:50:02.780Z,34.15
2019-03-01T09:55:03.123Z,21.30
2019-03-01T10:00:02.549Z,21.17
2019-03-01T10:05:03.015Z,21.77
2019-03-01T10:10:02.527Z,21.80
2019-03-01T10:15:02.953Z,11.95
2019-03-01T10:20:03.296Z,18.98
2019-03-01T10:25:02.703Z,18.05
2019-03-01T10:30:03.047Z,17.17
2019-03-01T10:35:02.462Z,17.20
2019-03-01T10:40:02.175Z,0
2019-03-01T10:45:02.546Z,13.93
2019-03-01T10:50:02.977Z,13.95
2019-03-01T10:55:02.390Z,12.78
2019-03-01T11:00:02.712Z,12.80
2019-03-01T11:05:03.076Z,12.47
2019-03-01T11:10:02.483Z,9.30
2019-03-01T11:15:01.994Z,0
2019-03-01T11:20:02.355Z,7.60
2019-03-01T11:25:02.689Z,7.85
2019-03-01T11:30:03.041Z,8.58
2019-03-01T11:35:02.454Z,9.00
2019-03-01T11:40:02.917Z,11.22
2019-03-01T11:45:03.339Z,9.38
2019-03-01T11:50:02.760Z,9.18
2019-03-01T11:55:03.095Z,7.10
2019-03-01T12:00:02.536Z,8.50
2019-03-01T12:05:02.874Z,7.92
2019-03-01T12:10:03.308Z,7.35
2019-03-01T12:15:02.713Z,8.28
2019-03-01T12:20:03.086Z,7.87
2019-03-01T12:25:02.482Z,11.78
2019-03-01T12:30:02.829Z,14.95
2019-03-01T12:35:03.168Z,18.75
2019-03-01T12:40:02.678Z,8.58
2019-03-01T12:45:03.033Z,8.88
2019-03-01T12:50:02.470Z,8.23
2019-03-01T12:55:02.910Z,7.67
2019-03-01T13:00:03.262Z,9.03
2019-03-01T13:05:02.670Z,10.68
2019-03-01T13:10:06.176Z,11.95
2019-03-01T13:15:03.337Z,7.80
2019-03-01T13:20:02.806Z,9.25
2019-03-01T13:25:03.152Z,8.98
2019-03-01T13:30:02.506Z,7.97
2019-03-01T13:35:02.865Z,7.75
2019-03-01T13:40:03.307Z,5.95
2019-03-01T13:45:02.711Z,6.97
2019-03-01T13:50:06.093Z,7.10
2019-03-01T13:55:03.243Z,7.90
2019-03-01T14:00:01.864Z,0
2019-03-01T14:05:03.257Z,6.83
2019-03-01T14:10:04.805Z,5.50
2019-03-01T14:15:03.882Z,4.03
2019-03-01T14:20:03.256Z,5.00
2019-03-01T14:25:05.217Z,4.30
2019-03-01T14:30:02.395Z,4.25
2019-03-01T14:35:02.746Z,5.10
2019-03-01T14:40:03.183Z,5.00
2019-03-01T14:45:02.546Z,9.35
2019-03-01T14:50:02.949Z,4.80
2019-03-01T14:55:03.275Z,4.28
2019-03-01T15:00:09.768Z,0
2019-03-01T15:05:05.357Z,4.60
2019-03-01T15:10:02.977Z,4.00
2019-03-01T15:15:02.301Z,3.90
2019-03-01T15:20:02.742Z,3.80
2019-03-01T15:25:03.176Z,3.37
2019-03-01T15:30:05.739Z,3.95
2019-03-01T15:35:04.225Z,3.50
2019-03-01T15:40:02.885Z,3.67
2019-03-01T15:45:05.060Z,5.35
2019-03-01T15:50:03.246Z,4.45
2019-03-01T15:55:02.683Z,4.95
2019-03-01T16:00:03.341Z,3.60
2019-03-01T16:05:02.757Z,3.25
2019-03-01T16:10:03.175Z,3.65
2019-03-01T16:15:02.606Z,3.22
2019-03-01T16:20:02.960Z,3.20
2019-03-01T16:25:03.481Z,3.17
2019-03-01T16:30:02.888Z,3.42
2019-03-01T16:35:03.262Z,4.95
2019-03-01T16:40:02.750Z,3.20
2019-03-01T16:45:03.113Z,3.17
2019-03-01T16:50:05.814Z,3.22
2019-03-01T16:55:02.484Z,3.15
2019-03-01T17:00:02.936Z,3.40
2019-03-01T17:05:04.728Z,2.83
2019-03-01T17:10:03.265Z,2.83
2019-03-01T17:15:02.692Z,3.20
2019-03-01T17:20:03.658Z,2.75
2019-03-01T17:25:03.169Z,2.95
2019-03-01T17:30:02.613Z,3.00
2019-03-01T17:35:04.960Z,3.35
2019-03-01T17:40:02.449Z,2.90
2019-03-01T17:45:02.795Z,3.62
2019-03-01T17:50:05.527Z,3.37
2019-03-01T17:55:02.745Z,0
2019-03-01T18:00:03.234Z,3.33
2019-03-01T18:05:02.605Z,3.60
2019-03-01T18:10:03.073Z,3.62
2019-03-01T18:15:02.470Z,3.40
2019-03-01T18:20:02.822Z,3.85
2019-03-01T18:25:03.153Z,3.60
2019-03-01T18:30:02.570Z,3.77
2019-03-01T18:35:02.981Z,3.62
2019-03-01T18:40:02.443Z,3.45
2019-03-01T18:45:03.495Z,3.87
2019-03-01T18:50:03.234Z,3.25
2019-03-01T18:55:02.646Z,3.60
2019-03-01T19:00:02.989Z,3.58
2019-03-01T19:05:04.487Z,3.85
2019-03-01T19:10:02.958Z,4.40
2019-03-01T19:15:03.299Z,4.12
2019-03-01T19:20:05.668Z,5.22
2019-03-01T19:25:02.866Z,4.30
2019-03-01T19:30:05.014Z,4.83
2019-03-01T19:35:02.501Z,5.20
2019-03-01T19:40:03.054Z,4.78
2019-03-01T19:45:04.858Z,4.80
2019-03-01T19:50:03.359Z,4.97
2019-03-01T19:55:02.749Z,5.05
2019-03-01T20:00:03.109Z,4.60
2019-03-01T20:05:02.523Z,5.62
2019-03-01T20:10:02.991Z,4.95
2019-03-01T20:15:02.373Z,5.67
2019-03-01T20:20:02.844Z,5.67
2019-03-01T20:25:03.304Z,5.40
2019-03-01T20:30:04.248Z,6.30
2019-03-01T20:35:02.829Z,5.45
2019-03-01T20:40:03.270Z,6.40
2019-03-01T20:45:02.675Z,4.97
2019-03-01T20:50:03.597Z,5.90
2019-03-01T20:55:03.062Z,6.00
2019-03-01T21:00:02.855Z,5.85
2019-03-01T21:05:03.257Z,6.78
2019-03-01T21:10:02.630Z,6.10
2019-03-01T21:15:03.104Z,6.25
2019-03-01T21:20:02.552Z,5.30
2019-03-01T21:25:03.240Z,0
2019-03-01T21:30:02.886Z,6.20
2019-03-01T21:35:03.212Z,7.08
2019-03-01T21:40:03.237Z,6.62
2019-03-01T21:45:02.667Z,7.22
2019-03-01T21:50:04.269Z,7.70
2019-03-01T21:55:03.147Z,7.20
2019-03-01T22:00:02.562Z,8.95
2019-03-01T22:05:02.906Z,8.70
2019-03-01T22:10:03.292Z,8.55
2019-03-01T22:15:02.654Z,8.38
2019-03-01T22:20:05.717Z,7.05
2019-03-01T22:25:03.339Z,6.67
2019-03-01T22:30:02.770Z,7.67
2019-03-01T22:35:07.860Z,7.37
2019-03-01T22:40:02.820Z,7.62
2019-03-01T22:45:03.210Z,6.78
2019-03-01T22:50:04.043Z,6.17
2019-03-01T22:55:03.135Z,6.60
2019-03-01T23:00:02.447Z,5.47
2019-03-01T23:05:03.833Z,5.42
2019-03-01T23:10:03.240Z,5.80
2019-03-01T23:15:06.298Z,5.70
2019-03-01T23:20:03.111Z,4.50
2019-03-01T23:25:02.516Z,4.75
2019-03-01T23:30:02.862Z,4.78
2019-03-01T23:35:03.204Z,4.75
2019-03-01T23:40:02.617Z,5.03
2019-03-01T23:45:02.961Z,4.10
2019-03-01T23:50:03.308Z,4.55
2019-03-01T23:55:02.725Z,4.53
